sensor_id;sensor_type;location;lat;lon;timestamp;P1;durP1;ratioP1;P2;durP2;ratioP2
58982;SDS011;44771;49.982;8.560;2022-11-18T03:14:59;35.42;;;22.13;;
58982;SDS011;44771;49.982;8.560;2022-11-18T03:20:22;40.27;;;22.00;;
58982;SDS011;44771;49.982;8.560;2022-11-18T03:25:30;39.40;;;21.83;;
58982;SDS011;44771;49.982;8.560;2022-11-18T03:47:49;25.52;;;16.15;;
58982;SDS011;44771;49.982;8.560;2022-11-18T03:52:59;20.35;;;15.23;;
58982;SDS011;44771;49.982;8.560;2022-11-18T03:58:06;19.75;;;14.18;;
58982;SDS011;44771;49.982;8.560;2022-11-18T04:03:16;19.65;;;12.65;;
58982;SDS011;44771;49.982;8.560;2022-11-18T04:08:20;17.50;;;13.00;;
58982;SDS011;44771;49.982;8.560;2022-11-18T04:13:25;16.12;;;12.55;;
58982;SDS011;44771;49.982;8.560;2022-11-18T04:23:33;16.92;;;12.43;;
58982;SDS011;44771;49.982;8.560;2022-11-18T04:28:34;12.77;;;11.25;;
58982;SDS011;44771;49.982;8.560;2022-11-18T04:33:38;19.83;;;12.48;;
58982;SDS011;44771;49.982;8.560;2022-11-18T04:38:49;13.82;;;12.35;;
58982;SDS011;44771;49.982;8.560;2022-11-18T04:43:56;15.98;;;13.02;;
58982;SDS011;44771;49.982;8.560;2022-11-18T04:49:04;22.85;;;13.15;;
58982;SDS011;44771;49.982;8.560;2022-11-18T04:54:13;30.10;;;15.63;;
58982;SDS011;44771;49.982;8.560;2022-11-18T05:04:50;39.05;;;17.80;;
58982;SDS011;44771;49.982;8.560;2022-11-18T05:09:54;39.88;;;18.52;;
58982;SDS011;44771;49.982;8.560;2022-11-18T05:15:04;51.80;;;21.58;;
58982;SDS011;44771;49.982;8.560;2022-11-18T05:20:17;50.08;;;20.52;;
58982;SDS011;44771;49.982;8.560;2022-11-18T05:25:30;38.75;;;20.17;;
58982;SDS011;44771;49.982;8.560;2022-11-18T05:30:47;61.10;;;21.90;;
58982;SDS011;44771;49.982;8.560;2022-11-18T05:35:54;40.63;;;20.25;;
58982;SDS011;44771;49.982;8.560;2022-11-18T05:40:57;55.78;;;21.75;;
58982;SDS011;44771;49.982;8.560;2022-11-18T05:45:59;45.10;;;20.17;;
58982;SDS011;44771;49.982;8.560;2022-11-18T05:51:02;51.25;;;19.58;;
58982;SDS011;44771;49.982;8.560;2022-11-18T05:56:05;64.47;;;21.70;;
58982;SDS011;44771;49.982;8.560;2022-11-18T06:06:34;59.42;;;22.52;;
58982;SDS011;44771;49.982;8.560;2022-11-18T06:11:37;69.18;;;23.58;;
58982;SDS011;44771;49.982;8.560;2022-11-18T06:16:44;76.72;;;23.25;;
58982;SDS011;44771;49.982;8.560;2022-11-18T06:21:50;86.60;;;24.35;;
58982;SDS011;44771;49.982;8.560;2022-11-18T06:26:52;65.15;;;23.52;;
58982;SDS011;44771;49.982;8.560;2022-11-18T06:31:54;75.93;;;23.30;;
58982;SDS011;44771;49.982;8.560;2022-11-18T06:37:12;95.12;;;27.60;;
58982;SDS011;44771;49.982;8.560;2022-11-18T06:42:20;87.57;;;29.33;;
58982;SDS011;44771;49.982;8.560;2022-11-18T06:47:23;87.97;;;25.92;;
58982;SDS011;44771;49.982;8.560;2022-11-18T06:52:26;75.93;;;25.25;;
58982;SDS011;44771;49.982;8.560;2022-11-18T06:57:31;69.20;;;24.33;;
58982;SDS011;44771;49.982;8.560;2022-11-18T07:02:58;73.47;;;24.87;;
58982;SDS011;44771;49.982;8.560;2022-11-18T07:08:03;63.80;;;25.75;;
58982;SDS011;44771;49.982;8.560;2022-11-18T07:13:13;56.40;;;21.00;;
58982;SDS011;44771;49.982;8.560;2022-11-18T07:18:15;58.75;;;23.33;;
58982;SDS011;44771;49.982;8.560;2022-11-18T07:23:18;46.78;;;18.87;;
58982;SDS011;44771;49.982;8.560;2022-11-18T07:28:24;32.25;;;17.85;;
58982;SDS011;44771;49.982;8.560;2022-11-18T07:33:45;36.08;;;18.58;;
58982;SDS011;44771;49.982;8.560;2022-11-18T07:38:49;36.10;;;18.33;;
58982;SDS011;44771;49.982;8.560;2022-11-18T07:43:53;34.30;;;19.42;;
58982;SDS011;44771;49.982;8.560;2022-11-18T07:49:01;44.00;;;19.08;;
58982;SDS011;44771;49.982;8.560;2022-11-18T08:09:57;28.45;;;16.92;;
58982;SDS011;44771;49.982;8.560;2022-11-18T08:15:14;29.58;;;18.08;;
58982;SDS011;44771;49.982;8.560;2022-11-18T08:20:20;37.08;;;16.95;;
58982;SDS011;44771;49.982;8.560;2022-11-18T08:25:24;28.87;;;16.27;;
58982;SDS011;44771;49.982;8.560;2022-11-18T08:30:28;27.87;;;16.90;;
58982;SDS011;44771;49.982;8.560;2022-11-18T08:35:31;24.45;;;14.93;;
58982;SDS011;44771;49.982;8.560;2022-11-18T08:40:38;22.98;;;14.90;;
58982;SDS011;44771;49.982;8.560;2022-11-18T08:45:54;17.27;;;13.43;;
58982;SDS011;44771;49.982;8.560;2022-11-18T08:51:02;15.95;;;12.68;;
58982;SDS011;44771;49.982;8.560;2022-11-18T08:56:10;14.90;;;13.48;;
58982;SDS011;44771;49.982;8.560;2022-11-18T09:06:32;12.95;;;11.30;;
58982;SDS011;44771;49.982;8.560;2022-11-18T09:11:47;14.35;;;11.80;;
58982;SDS011;44771;49.982;8.560;2022-11-18T09:16:49;11.60;;;10.55;;
58982;SDS011;44771;49.982;8.560;2022-11-18T09:21:51;11.18;;;10.07;;
58982;SDS011;44771;49.982;8.560;2022-11-18T09:26:58;10.85;;;10.02;;
58982;SDS011;44771;49.982;8.560;2022-11-18T09:32:15;12.65;;;10.50;;
58982;SDS011;44771;49.982;8.560;2022-11-18T09:37:20;10.05;;;9.25;;
58982;SDS011;44771;49.982;8.560;2022-11-18T09:42:31;10.15;;;9.48;;
58982;SDS011;44771;49.982;8.560;2022-11-18T09:47:42;10.63;;;9.80;;
58982;SDS011;44771;49.982;8.560;2022-11-18T09:53:04;15.38;;;13.45;;
58982;SDS011;44771;49.982;8.560;2022-11-18T09:58:14;13.00;;;11.80;;
58982;SDS011;44771;49.982;8.560;2022-11-18T10:03:22;12.15;;;11.15;;
58982;SDS011;44771;49.982;8.560;2022-11-18T10:08:44;11.98;;;10.98;;
58982;SDS011;44771;49.982;8.560;2022-11-18T10:14:30;11.35;;;10.23;;
58982;SDS011;44771;49.982;8.560;2022-11-18T10:20:02;12.00;;;10.90;;
58982;SDS011;44771;49.982;8.560;2022-11-18T10:25:17;12.68;;;11.38;;
58982;SDS011;44771;49.982;8.560;2022-11-18T10:35:37;12.70;;;11.12;;
58982;SDS011;44771;49.982;8.560;2022-11-18T10:40:42;12.60;;;11.60;;
58982;SDS011;44771;49.982;8.560;2022-11-18T10:45:46;11.77;;;10.77;;
58982;SDS011;44771;49.982;8.560;2022-11-18T10:50:52;12.63;;;11.32;;
58982;SDS011;44771;49.982;8.560;2022-11-18T10:56:06;12.25;;;11.20;;
58982;SDS011;44771;49.982;8.560;2022-11-18T11:01:13;11.50;;;10.50;;
58982;SDS011;44771;49.982;8.560;2022-11-18T11:06:28;12.35;;;11.15;;
58982;SDS011;44771;49.982;8.560;2022-11-18T11:11:33;10.60;;;9.70;;
58982;SDS011;44771;49.982;8.560;2022-11-18T11:16:37;12.00;;;9.45;;
58982;SDS011;44771;49.982;8.560;2022-11-18T11:21:47;11.88;;;10.52;;
58982;SDS011;44771;49.982;8.560;2022-11-18T11:26:53;11.52;;;10.63;;
58982;SDS011;44771;49.982;8.560;2022-11-18T11:32:25;10.80;;;9.90;;
58982;SDS011;44771;49.982;8.560;2022-11-18T11:37:37;11.98;;;10.68;;
58982;SDS011;44771;49.982;8.560;2022-11-18T11:48:14;18.73;;;12.68;;
58982;SDS011;44771;49.982;8.560;2022-11-18T12:46:47;12.32;;;11.10;;
58982;SDS011;44771;49.982;8.560;2022-11-18T12:51:54;12.68;;;11.23;;
58982;SDS011;44771;49.982;8.560;2022-11-18T12:56:57;9.65;;;9.05;;
58982;SDS011;44771;49.982;8.560;2022-11-18T13:02:06;10.40;;;9.32;;
58982;SDS011;44771;49.982;8.560;2022-11-18T13:07:19;10.32;;;9.63;;
58982;SDS011;44771;49.982;8.560;2022-11-18T13:12:23;9.07;;;8.57;;
58982;SDS011;44771;49.982;8.560;2022-11-18T13:17:29;9.70;;;8.98;;
58982;SDS011;44771;49.982;8.560;2022-11-18T13:22:33;10.73;;;9.82;;
58982;SDS011;44771;49.982;8.560;2022-11-18T13:27:40;10.95;;;10.05;;
58982;SDS011;44771;49.982;8.560;2022-11-18T13:32:49;9.25;;;8.60;;
58982;SDS011;44771;49.982;8.560;2022-11-18T13:37:56;9.80;;;9.20;;
58982;SDS011;44771;49.982;8.560;2022-11-18T13:43:02;10.32;;;9.40;;
58982;SDS011;44771;49.982;8.560;2022-11-18T13:48:06;9.77;;;9.05;;
58982;SDS011;44771;49.982;8.560;2022-11-18T13:53:17;8.82;;;8.23;;
58982;SDS011;44771;49.982;8.560;2022-11-18T13:58:32;9.57;;;8.77;;
58982;SDS011;44771;49.982;8.560;2022-11-18T14:03:59;9.52;;;8.82;;
58982;SDS011;44771;49.982;8.560;2022-11-18T14:09:04;8.68;;;8.07;;
58982;SDS011;44771;49.982;8.560;2022-11-18T14:14:26;12.90;;;8.48;;
58982;SDS011;44771;49.982;8.560;2022-11-18T14:19:31;8.60;;;8.00;;
58982;SDS011;44771;49.982;8.560;2022-11-18T14:24:34;8.93;;;8.30;;
58982;SDS011;44771;49.982;8.560;2022-11-18T15:11:56;10.60;;;9.60;;
58982;SDS011;44771;49.982;8.560;2022-11-18T15:16:58;10.02;;;9.23;;
58982;SDS011;44771;49.982;8.560;2022-11-18T15:22:00;10.50;;;9.38;;
58982;SDS011;44771;49.982;8.560;2022-11-18T15:27:03;11.73;;;9.85;;
58982;SDS011;44771;49.982;8.560;2022-11-18T15:32:05;11.25;;;9.98;;
58982;SDS011;44771;49.982;8.560;2022-11-18T15:37:09;10.65;;;9.63;;
58982;SDS011;44771;49.982;8.560;2022-11-18T15:42:16;11.12;;;9.68;;
58982;SDS011;44771;49.982;8.560;2022-11-18T15:47:23;10.15;;;9.15;;
58982;SDS011;44771;49.982;8.560;2022-11-18T15:52:29;12.50;;;8.95;;
58982;SDS011;44771;49.982;8.560;2022-11-18T15:57:46;10.93;;;8.77;;
58982;SDS011;44771;49.982;8.560;2022-11-18T16:02:51;15.85;;;10.63;;
58982;SDS011;44771;49.982;8.560;2022-11-18T16:08:17;15.95;;;10.27;;
58982;SDS011;44771;49.982;8.560;2022-11-18T21:10:26;18.15;;;12.95;;
58982;SDS011;44771;49.982;8.560;2022-11-18T21:42:28;12.95;;;11.65;;
58982;SDS011;44771;49.982;8.560;2022-11-18T21:47:30;10.87;;;9.70;;
